Terminal Aerodrome Forecast
Issued by NWS

Home | Current Version | Previous Version | Text Only | Print | Product List | Glossary On
Versions: 1 2 3 4 5 6 7 8 9 10 11 12 13 14 15 16 17 18 19 20 21 22 23 24 25 26
918
FTUS42 KCAE 111139
TAFCUB
TAF
KCUB 111139Z 1112/1212 26004KT P6SM SCT250
     FM111800 27008KT P6SM SCT060 BKN250
     FM120000 VRB03KT P6SM OVC080=

USA.gov is the U.S. government's official web portal to all federal, state and local government web resources and services.